createdAt,value
2019-05-06T00:00:24.743Z,6.35
2019-05-06T00:02:54.490Z,6.27
2019-05-06T00:05:25.458Z,6.27
2019-05-06T00:07:54.473Z,6.25
2019-05-06T00:10:33.882Z,6.18
2019-05-06T00:13:04.405Z,6.09
2019-05-06T00:15:34.320Z,6.09
2019-05-06T00:18:04.512Z,6.04
2019-05-06T00:20:34.831Z,5.99
2019-05-06T00:23:21.622Z,5.99
2019-05-06T00:25:54.480Z,5.99
2019-05-06T00:28:34.038Z,6.00
2019-05-06T00:31:12.826Z,5.92
2019-05-06T00:33:34.827Z,5.92
2019-05-06T00:36:04.747Z,5.85
2019-05-06T00:38:34.104Z,5.85
2019-05-06T00:41:24.569Z,5.79
2019-05-06T00:43:54.672Z,5.74
2019-05-06T00:46:24.317Z,5.74
2019-05-06T00:48:54.280Z,5.63
2019-05-06T00:51:24.158Z,5.63
2019-05-06T00:54:00.365Z,5.49
2019-05-06T00:56:28.843Z,5.49
2019-05-06T00:58:57.328Z,5.43
2019-05-06T01:01:29.633Z,5.38
2019-05-06T01:03:56.177Z,5.32
2019-05-06T01:06:25.040Z,5.32
2019-05-06T01:08:54.448Z,5.35
2019-05-06T01:11:23.874Z,5.31
2019-05-06T01:13:54.861Z,5.31
2019-05-06T01:16:24.943Z,5.25
2019-05-06T01:18:54.149Z,5.25
2019-05-06T01:21:23.829Z,5.21
2019-05-06T01:23:54.462Z,5.22
2019-05-06T01:26:24.258Z,5.16
2019-05-06T01:28:54.644Z,5.16
2019-05-06T01:31:26.015Z,5.14
2019-05-06T01:33:54.078Z,5.11
2019-05-06T01:36:24.765Z,5.07
2019-05-06T01:38:54.622Z,5.05
2019-05-06T01:41:34.018Z,5.01
2019-05-06T01:44:04.276Z,4.98
2019-05-06T01:46:33.981Z,4.93
2019-05-06T01:49:04.310Z,4.89
2019-05-06T01:51:34.783Z,4.88
2019-05-06T01:54:03.855Z,4.86
2019-05-06T01:56:33.703Z,4.84
2019-05-06T01:59:04.380Z,4.83
2019-05-06T02:01:34.103Z,4.79
2019-05-06T02:04:04.397Z,4.76
2019-05-06T02:06:34.279Z,4.75
2019-05-06T02:09:04.605Z,4.72
2019-05-06T02:11:33.767Z,4.70
2019-05-06T02:14:04.577Z,4.67
2019-05-06T02:16:34.361Z,4.64
2019-05-06T02:19:04.080Z,4.62
2019-05-06T02:21:34.592Z,4.60
2019-05-06T02:24:20.932Z,4.57
2019-05-06T02:26:49.511Z,4.53
2019-05-06T02:29:20.005Z,4.51
2019-05-06T02:31:56.651Z,4.49
2019-05-06T02:34:25.379Z,4.45
2019-05-06T02:37:01.501Z,4.44
2019-05-06T02:39:29.971Z,4.41
2019-05-06T02:41:58.519Z,4.39
2019-05-06T02:44:27.035Z,4.35
2019-05-06T02:47:09.173Z,4.33
2019-05-06T02:49:45.310Z,4.31
2019-05-06T02:52:14.206Z,4.29
2019-05-06T02:54:42.930Z,4.27
2019-05-06T02:57:13.183Z,4.25
2019-05-06T02:59:44.150Z,4.25
2019-05-06T03:02:14.059Z,4.23
2019-05-06T03:04:43.734Z,4.21
2019-05-06T03:07:14.554Z,4.20
2019-05-06T03:09:44.554Z,4.19
2019-05-06T03:12:13.563Z,4.20
2019-05-06T03:14:43.646Z,4.21
2019-05-06T03:17:14.150Z,4.22
2019-05-06T03:19:46.054Z,4.24
2019-05-06T03:22:28.045Z,4.25
2019-05-06T03:24:58.211Z,4.24
2019-05-06T03:27:26.690Z,4.26
2019-05-06T03:29:55.211Z,4.26
2019-05-06T03:32:30.150Z,4.26
2019-05-06T03:35:15.886Z,4.28
2019-05-06T03:37:25.105Z,4.27
2019-05-06T03:39:53.602Z,4.27
2019-05-06T03:42:23.025Z,4.28
2019-05-06T03:44:54.687Z,4.30
2019-05-06T03:47:34.817Z,4.32
2019-05-06T03:50:04.596Z,4.35
2019-05-06T03:52:34.331Z,4.38
2019-05-06T03:55:03.796Z,4.40
2019-05-06T03:57:35.940Z,4.43
2019-05-06T04:00:04.969Z,4.49
2019-05-06T04:02:33.982Z,4.54
2019-05-06T04:05:03.889Z,4.72
2019-05-06T04:07:34.129Z,4.72
2019-05-06T04:10:03.831Z,4.90
2019-05-06T04:12:33.334Z,5.09
2019-05-06T04:15:04.306Z,5.30
2019-05-06T04:17:34.816Z,5.65
2019-05-06T04:20:08.693Z,5.65
2019-05-06T04:22:43.998Z,5.78
2019-05-06T04:25:14.213Z,5.90
2019-05-06T04:27:47.035Z,5.98
2019-05-06T04:30:16.641Z,6.02
2019-05-06T04:32:45.226Z,6.09
2019-05-06T04:35:13.998Z,6.15
2019-05-06T04:37:43.814Z,6.20
2019-05-06T04:40:13.218Z,6.25
2019-05-06T04:42:44.365Z,6.30
2019-05-06T04:45:13.562Z,6.37
2019-05-06T04:47:43.413Z,6.40
2019-05-06T04:50:14.724Z,6.44
2019-05-06T04:52:43.663Z,6.49
2019-05-06T04:55:16.657Z,6.54
2019-05-06T04:57:45.210Z,6.59
2019-05-06T05:00:13.951Z,6.65
2019-05-06T05:02:46.117Z,6.69
2019-05-06T05:05:13.982Z,6.75
2019-05-06T05:07:44.053Z,6.79
2019-05-06T05:10:17.485Z,6.81
2019-05-06T05:13:04.019Z,6.85
2019-05-06T05:15:52.595Z,6.88
2019-05-06T05:18:26.301Z,6.95
2019-05-06T05:20:54.799Z,6.99
2019-05-06T05:23:23.612Z,7.04
2019-05-06T05:25:52.285Z,7.06
2019-05-06T05:28:22.294Z,7.09
2019-05-06T05:30:52.208Z,7.14
2019-05-06T05:33:22.494Z,7.18
2019-05-06T05:35:52.539Z,7.23
2019-05-06T05:38:22.734Z,7.29
2019-05-06T05:40:52.442Z,7.33
2019-05-06T05:43:42.399Z,7.40
2019-05-06T05:46:12.632Z,7.45
2019-05-06T05:48:52.127Z,7.52
2019-05-06T05:51:22.271Z,7.59
2019-05-06T05:53:52.324Z,7.65
2019-05-06T05:56:23.802Z,7.70
2019-05-06T05:58:53.573Z,7.78
2019-05-06T06:01:23.238Z,7.88
2019-05-06T06:03:52.766Z,7.99
2019-05-06T06:06:22.134Z,8.10
2019-05-06T06:08:52.379Z,8.19
2019-05-06T06:11:23.269Z,8.28
2019-05-06T06:13:52.349Z,8.37
2019-05-06T06:16:42.265Z,8.46
2019-05-06T06:19:18.465Z,8.56
2019-05-06T06:22:03.477Z,8.70
2019-05-06T06:24:33.937Z,8.80
2019-05-06T06:27:03.350Z,8.94
2019-05-06T06:29:32.435Z,9.04
2019-05-06T06:32:05.443Z,9.12
2019-05-06T06:34:42.711Z,9.22
2019-05-06T06:37:28.188Z,9.30
2019-05-06T06:39:57.986Z,9.38
2019-05-06T06:42:27.683Z,9.47
2019-05-06T06:44:56.476Z,9.54
2019-05-06T06:47:25.236Z,9.60
2019-05-06T06:49:53.713Z,9.66
2019-05-06T06:52:24.091Z,9.71
2019-05-06T06:54:52.921Z,9.72
2019-05-06T06:57:24.503Z,9.77
2019-05-06T06:59:56.725Z,9.82
2019-05-06T07:02:43.951Z,9.90
2019-05-06T07:05:25.488Z,10.01
2019-05-06T07:07:48.094Z,10.18
2019-05-06T07:10:35.033Z,10.37
2019-05-06T07:13:03.761Z,10.56
2019-05-06T07:15:33.644Z,10.65
2019-05-06T07:18:02.687Z,10.68
2019-05-06T07:20:52.565Z,10.65
2019-05-06T07:23:25.779Z,10.71
2019-05-06T07:25:54.838Z,10.76
2019-05-06T07:28:24.373Z,10.80
2019-05-06T07:30:55.561Z,10.78
2019-05-06T07:33:29.860Z,10.80
2019-05-06T07:35:58.986Z,10.85
2019-05-06T07:38:27.535Z,10.90
2019-05-06T07:40:58.991Z,10.99
2019-05-06T07:43:45.373Z,11.07
2019-05-06T07:46:24.504Z,11.14
2019-05-06T07:48:53.109Z,11.27
2019-05-06T07:51:23.699Z,11.45
2019-05-06T07:53:52.568Z,11.56
2019-05-06T07:56:22.472Z,11.66
2019-05-06T07:58:52.998Z,11.78
2019-05-06T08:01:25.514Z,11.89
2019-05-06T08:03:54.060Z,12.00
2019-05-06T08:06:22.820Z,12.11
2019-05-06T08:08:53.749Z,12.19
2019-05-06T08:11:22.639Z,12.30
2019-05-06T08:13:52.748Z,12.33
2019-05-06T08:16:22.654Z,12.39
2019-05-06T08:18:52.402Z,12.42
2019-05-06T08:21:28.717Z,12.43
2019-05-06T08:23:59.016Z,12.42
2019-05-06T08:26:27.611Z,12.40
2019-05-06T08:28:57.410Z,12.39
2019-05-06T08:31:26.080Z,12.37
2019-05-06T08:33:54.566Z,12.34
2019-05-06T08:36:24.760Z,12.31
2019-05-06T08:38:57.051Z,12.32
2019-05-06T08:41:27.397Z,12.36
2019-05-06T08:43:56.101Z,12.50
2019-05-06T08:46:24.714Z,12.67
2019-05-06T08:48:53.319Z,12.83
2019-05-06T08:51:34.465Z,12.88
2019-05-06T08:54:04.588Z,12.94
2019-05-06T08:56:33.072Z,12.96
2019-05-06T08:59:03.156Z,13.07
2019-05-06T09:01:45.415Z,13.18
2019-05-06T09:04:16.246Z,13.31
2019-05-06T09:06:44.986Z,13.24
2019-05-06T09:09:13.493Z,13.55
2019-05-06T09:11:43.148Z,13.55
2019-05-06T09:14:13.710Z,13.49
2019-05-06T09:16:43.698Z,13.47
2019-05-06T09:19:13.077Z,13.49
2019-05-06T09:21:45.848Z,13.45
2019-05-06T09:24:12.800Z,13.55
2019-05-06T09:26:44.928Z,13.66
2019-05-06T09:29:20.564Z,13.78
2019-05-06T09:31:52.231Z,13.96
2019-05-06T09:34:27.755Z,14.09
2019-05-06T09:37:13.467Z,14.21
2019-05-06T09:39:44.032Z,14.21
2019-05-06T09:42:13.446Z,14.15
2019-05-06T09:44:43.046Z,14.09
2019-05-06T09:47:13.339Z,13.96
2019-05-06T09:49:43.702Z,13.88
2019-05-06T09:52:12.966Z,13.81
2019-05-06T09:54:44.586Z,13.91
2019-05-06T09:57:17.630Z,14.06
2019-05-06T09:59:47.410Z,14.24
2019-05-06T10:02:15.941Z,14.45
2019-05-06T10:04:44.506Z,14.65
2019-05-06T10:07:13.201Z,14.71
2019-05-06T10:09:43.454Z,14.75
2019-05-06T10:12:12.784Z,14.74
2019-05-06T10:14:43.316Z,14.63
2019-05-06T10:17:13.169Z,14.54
2019-05-06T10:19:43.559Z,14.48
2019-05-06T10:22:12.658Z,14.41
2019-05-06T10:24:43.140Z,14.39
2019-05-06T10:27:12.272Z,14.37
2019-05-06T10:29:43.239Z,14.41
2019-05-06T10:32:16.748Z,14.42
2019-05-06T10:34:45.236Z,14.43
2019-05-06T10:37:24.237Z,14.49
2019-05-06T10:40:17.977Z,14.54
2019-05-06T10:42:52.759Z,14.54
2019-05-06T10:45:35.346Z,14.47
2019-05-06T10:48:03.870Z,14.39
2019-05-06T10:50:33.982Z,14.28
2019-05-06T10:53:19.093Z,14.20
2019-05-06T10:55:55.479Z,14.13
2019-05-06T10:58:24.071Z,14.03
2019-05-06T11:01:12.493Z,13.95
2019-05-06T11:03:41.968Z,13.86
2019-05-06T11:06:13.154Z,13.91
2019-05-06T11:08:45.166Z,13.95
2019-05-06T11:11:17.035Z,14.05
2019-05-06T11:13:43.989Z,14.24
2019-05-06T11:16:13.045Z,14.48
2019-05-06T11:18:42.612Z,14.73
2019-05-06T11:21:12.790Z,14.98
2019-05-06T11:23:41.957Z,15.11
2019-05-06T11:26:12.989Z,15.23
2019-05-06T11:28:52.108Z,15.25
2019-05-06T11:31:34.257Z,15.19
2019-05-06T11:34:04.606Z,15.18
2019-05-06T11:36:37.480Z,15.20
2019-05-06T11:39:07.779Z,15.19
2019-05-06T11:41:36.314Z,15.11
2019-05-06T11:44:08.682Z,15.11
2019-05-06T11:46:35.446Z,15.08
2019-05-06T11:49:03.993Z,15.09
2019-05-06T11:51:33.250Z,15.16
2019-05-06T11:54:02.878Z,15.24
2019-05-06T11:56:32.679Z,15.34
2019-05-06T11:59:02.621Z,15.47
2019-05-06T12:01:33.010Z,15.59
2019-05-06T12:04:02.696Z,15.75
2019-05-06T12:06:33.008Z,15.91
2019-05-06T12:09:06.398Z,16.03
2019-05-06T12:11:32.096Z,16.10
2019-05-06T12:14:02.545Z,16.12
2019-05-06T12:16:33.338Z,16.11
2019-05-06T12:19:02.770Z,16.10
2019-05-06T12:21:32.975Z,16.07
2019-05-06T12:24:02.893Z,16.04
2019-05-06T12:26:32.350Z,16.01
2019-05-06T12:29:02.194Z,15.98
2019-05-06T12:31:32.878Z,15.96
2019-05-06T12:34:02.694Z,15.97
2019-05-06T12:36:32.567Z,15.96
2019-05-06T12:39:17.417Z,15.86
2019-05-06T12:41:59.717Z,15.69
2019-05-06T12:44:29.360Z,15.49
2019-05-06T12:47:05.555Z,15.31
2019-05-06T12:49:34.167Z,15.22
2019-05-06T12:52:02.656Z,15.21
2019-05-06T12:54:33.401Z,15.27
2019-05-06T12:57:03.423Z,15.36
2019-05-06T12:59:31.693Z,15.40
2019-05-06T13:02:02.685Z,15.42
2019-05-06T13:04:46.166Z,15.44
2019-05-06T13:07:02.912Z,15.39
2019-05-06T13:09:32.972Z,15.31
2019-05-06T13:12:03.934Z,15.16
2019-05-06T13:14:33.140Z,15.01
2019-05-06T13:17:02.723Z,14.83
2019-05-06T13:19:32.325Z,14.61
2019-05-06T13:22:03.548Z,14.45
2019-05-06T13:24:32.673Z,14.37
2019-05-06T13:27:02.567Z,14.29
2019-05-06T13:29:36.484Z,14.22
2019-05-06T13:32:06.646Z,14.21
2019-05-06T13:34:36.677Z,14.24
2019-05-06T13:37:05.453Z,14.32
2019-05-06T13:39:34.135Z,14.45
2019-05-06T13:42:02.641Z,14.53
2019-05-06T13:44:32.044Z,14.58
2019-05-06T13:47:02.995Z,14.68
2019-05-06T13:49:33.243Z,14.79
2019-05-06T13:52:04.611Z,14.87
2019-05-06T13:54:33.578Z,14.87
2019-05-06T13:57:03.057Z,14.78
2019-05-06T13:59:34.740Z,14.73
2019-05-06T14:02:07.678Z,14.69
2019-05-06T14:04:36.478Z,14.63
2019-05-06T14:07:07.358Z,14.63
2019-05-06T14:09:40.073Z,14.63
2019-05-06T14:12:08.099Z,14.67
2019-05-06T14:14:36.606Z,14.71
2019-05-06T14:17:05.276Z,14.75
2019-05-06T14:19:33.936Z,14.78
2019-05-06T14:22:03.589Z,14.82
2019-05-06T14:24:32.912Z,14.87
2019-05-06T14:27:11.900Z,14.90
2019-05-06T14:29:44.655Z,14.95
2019-05-06T14:32:14.875Z,15.01
2019-05-06T14:34:43.635Z,15.01
2019-05-06T14:37:12.246Z,15.05
2019-05-06T14:39:53.890Z,15.06
2019-05-06T14:42:16.580Z,15.02
2019-05-06T14:44:45.034Z,14.99
2019-05-06T14:47:18.303Z,14.96
2019-05-06T14:49:46.835Z,14.91
2019-05-06T14:52:15.330Z,14.83
2019-05-06T14:54:53.232Z,14.73
2019-05-06T14:57:22.759Z,14.66
2019-05-06T14:59:55.253Z,14.55
2019-05-06T15:02:26.037Z,14.43
2019-05-06T15:04:53.821Z,14.31
2019-05-06T15:07:22.304Z,14.17
2019-05-06T15:10:07.872Z,14.04
2019-05-06T15:12:22.962Z,13.92
2019-05-06T15:14:52.575Z,13.92
2019-05-06T15:17:22.950Z,14.03
2019-05-06T15:19:52.583Z,14.18
2019-05-06T15:22:22.619Z,14.34
2019-05-06T15:24:53.745Z,14.53
2019-05-06T15:27:22.744Z,14.63
2019-05-06T15:29:54.331Z,14.66
2019-05-06T15:32:27.208Z,14.65
2019-05-06T15:35:02.294Z,14.65
2019-05-06T15:37:33.925Z,14.63
2019-05-06T15:40:03.151Z,14.61
2019-05-06T15:42:34.073Z,14.63
2019-05-06T15:45:02.117Z,14.63
2019-05-06T15:47:32.280Z,14.58
2019-05-06T15:50:01.223Z,14.51
2019-05-06T15:52:29.882Z,14.42
2019-05-06T15:54:58.359Z,14.32
2019-05-06T15:57:26.825Z,14.25
2019-05-06T15:59:55.371Z,14.19
2019-05-06T16:02:23.856Z,14.13
2019-05-06T16:04:52.344Z,14.10
2019-05-06T16:07:25.571Z,14.13
2019-05-06T16:09:55.281Z,14.25
2019-05-06T16:12:23.125Z,14.26
2019-05-06T16:14:53.047Z,14.28
2019-05-06T16:17:23.804Z,14.26
2019-05-06T16:19:52.087Z,14.22
2019-05-06T16:22:22.617Z,14.19
2019-05-06T16:24:54.890Z,14.28
2019-05-06T16:27:23.392Z,14.35
2019-05-06T16:29:52.960Z,14.40
2019-05-06T16:32:22.043Z,14.50
2019-05-06T16:34:52.433Z,14.64
2019-05-06T16:37:22.281Z,14.62
2019-05-06T16:39:52.486Z,14.52
2019-05-06T16:42:23.706Z,14.34
2019-05-06T16:44:53.351Z,14.18
2019-05-06T16:47:37.835Z,14.01
2019-05-06T16:50:13.244Z,13.89
2019-05-06T16:52:44.825Z,13.75
2019-05-06T16:55:18.308Z,13.65
2019-05-06T16:57:49.426Z,13.56
2019-05-06T17:00:22.526Z,13.44
2019-05-06T17:03:01.579Z,13.35
2019-05-06T17:05:34.755Z,13.23
2019-05-06T17:08:03.257Z,13.08
2019-05-06T17:10:32.341Z,12.92
2019-05-06T17:13:02.999Z,12.76
2019-05-06T17:15:32.602Z,12.66
2019-05-06T17:18:03.060Z,12.53
2019-05-06T17:20:32.950Z,12.41
2019-05-06T17:23:02.956Z,12.33
2019-05-06T17:25:32.883Z,12.24
2019-05-06T17:28:04.037Z,12.19
2019-05-06T17:30:34.169Z,12.11
2019-05-06T17:33:22.461Z,12.04
2019-05-06T17:35:52.197Z,11.97
2019-05-06T17:38:22.657Z,11.95
2019-05-06T17:40:52.441Z,11.95
2019-05-06T17:43:22.560Z,11.92
2019-05-06T17:46:01.674Z,11.87
2019-05-06T17:48:30.328Z,11.83
2019-05-06T17:51:09.007Z,11.82
2019-05-06T17:53:42.760Z,11.78
2019-05-06T17:56:12.532Z,11.73
2019-05-06T17:58:42.645Z,11.70
2019-05-06T18:01:12.621Z,11.70
2019-05-06T18:03:41.223Z,11.65
2019-05-06T18:06:14.037Z,11.63
2019-05-06T18:08:40.067Z,11.59
2019-05-06T18:11:08.614Z,11.57
2019-05-06T18:13:37.100Z,11.55
2019-05-06T18:16:05.640Z,11.51
2019-05-06T18:18:34.232Z,11.45
2019-05-06T18:21:04.479Z,11.41
2019-05-06T18:23:33.561Z,11.35
2019-05-06T18:26:03.144Z,11.29
2019-05-06T18:28:32.721Z,11.23
2019-05-06T18:31:03.077Z,11.19
2019-05-06T18:33:32.748Z,11.16
2019-05-06T18:36:02.583Z,11.13
2019-05-06T18:38:32.922Z,11.11
2019-05-06T18:41:02.090Z,11.07
2019-05-06T18:43:33.137Z,11.03
2019-05-06T18:46:02.869Z,10.99
2019-05-06T18:48:34.510Z,10.92
2019-05-06T18:51:03.036Z,10.86
2019-05-06T18:53:33.172Z,10.78
2019-05-06T18:56:03.227Z,10.72
2019-05-06T18:58:32.445Z,10.66
2019-05-06T19:01:00.994Z,10.61
2019-05-06T19:03:31.967Z,10.54
2019-05-06T19:06:02.411Z,10.48
2019-05-06T19:08:52.812Z,10.42
2019-05-06T19:11:22.225Z,10.37
2019-05-06T19:13:52.671Z,10.31
2019-05-06T19:16:23.180Z,10.26
2019-05-06T19:18:52.380Z,10.21
2019-05-06T19:21:24.270Z,10.15
2019-05-06T19:23:54.920Z,10.12
2019-05-06T19:26:24.607Z,10.07
2019-05-06T19:28:53.092Z,10.02
2019-05-06T19:31:23.524Z,9.97
2019-05-06T19:33:52.755Z,9.94
2019-05-06T19:36:23.468Z,9.91
2019-05-06T19:38:53.847Z,9.86
2019-05-06T19:41:23.718Z,9.83
2019-05-06T19:43:54.765Z,9.79
2019-05-06T19:46:25.005Z,9.74
2019-05-06T19:48:53.564Z,9.71
2019-05-06T19:51:22.638Z,9.66
2019-05-06T19:53:51.281Z,9.59
2019-05-06T19:56:19.888Z,9.55
2019-05-06T19:58:48.360Z,9.49
2019-05-06T20:01:16.860Z,9.44
2019-05-06T20:03:45.329Z,9.40
2019-05-06T20:06:15.452Z,9.36
2019-05-06T20:08:48.620Z,9.32
2019-05-06T20:11:32.966Z,9.27
2019-05-06T20:14:02.077Z,9.22
2019-05-06T20:16:32.325Z,9.15
2019-05-06T20:19:02.303Z,9.11
2019-05-06T20:21:32.853Z,9.07
2019-05-06T20:24:02.332Z,9.03
2019-05-06T20:26:32.472Z,9.00
2019-05-06T20:29:02.177Z,8.94
2019-05-06T20:31:32.204Z,8.86
2019-05-06T20:34:02.232Z,8.79
2019-05-06T20:36:33.121Z,8.73
2019-05-06T20:39:02.526Z,8.65
2019-05-06T20:41:32.858Z,8.59
2019-05-06T20:44:02.710Z,8.53
2019-05-06T20:46:32.347Z,8.51
2019-05-06T20:49:02.433Z,8.47
2019-05-06T20:51:32.768Z,8.43
2019-05-06T20:54:01.406Z,8.39
2019-05-06T20:56:32.731Z,8.37
2019-05-06T20:59:02.428Z,8.34
2019-05-06T21:01:32.678Z,8.34
2019-05-06T21:04:02.211Z,8.34
2019-05-06T21:06:32.225Z,8.30
2019-05-06T21:09:02.118Z,8.29
2019-05-06T21:11:32.582Z,8.29
2019-05-06T21:14:02.269Z,8.27
2019-05-06T21:16:32.015Z,8.27
2019-05-06T21:19:02.919Z,8.26
2019-05-06T21:21:31.961Z,8.26
2019-05-06T21:24:02.030Z,8.26
2019-05-06T21:26:32.879Z,8.26
2019-05-06T21:29:03.090Z,8.25
2019-05-06T21:31:32.600Z,8.25
2019-05-06T21:34:01.433Z,8.25
2019-05-06T21:36:30.048Z,8.24
2019-05-06T21:38:58.548Z,8.24
2019-05-06T21:41:27.045Z,8.23
2019-05-06T21:43:55.577Z,8.23
2019-05-06T21:46:24.055Z,8.24
2019-05-06T21:48:52.998Z,8.24
2019-05-06T21:51:22.261Z,8.26
2019-05-06T21:53:50.830Z,8.26
2019-05-06T21:56:19.305Z,8.26
2019-05-06T21:58:48.122Z,8.27
2019-05-06T22:01:16.784Z,8.27
2019-05-06T22:03:45.304Z,8.27
2019-05-06T22:06:13.868Z,8.27
2019-05-06T22:08:42.514Z,8.26
2019-05-06T22:11:10.987Z,8.25
2019-05-06T22:13:39.513Z,8.24
2019-05-06T22:16:07.982Z,8.23
2019-05-06T22:18:36.464Z,8.21
2019-05-06T22:21:09.652Z,8.19
2019-05-06T22:23:42.728Z,8.17
2019-05-06T22:26:15.678Z,8.16
2019-05-06T22:28:42.731Z,8.15
2019-05-06T22:31:11.340Z,8.14
2019-05-06T22:33:39.819Z,8.10
2019-05-06T22:36:08.327Z,8.09
2019-05-06T22:38:36.807Z,8.08
2019-05-06T22:41:05.627Z,8.05
2019-05-06T22:43:34.138Z,8.03
2019-05-06T22:46:02.951Z,8.03
2019-05-06T22:48:32.356Z,8.01
2019-05-06T22:51:02.680Z,7.99
2019-05-06T22:53:32.838Z,7.97
2019-05-06T22:56:06.188Z,7.96
2019-05-06T22:58:34.708Z,7.95
2019-05-06T23:01:06.664Z,7.91
2019-05-06T23:03:35.172Z,7.90
2019-05-06T23:06:03.942Z,7.87
2019-05-06T23:08:32.609Z,7.86
2019-05-06T23:11:01.090Z,7.85
2019-05-06T23:13:29.576Z,7.84
2019-05-06T23:15:58.120Z,7.83
2019-05-06T23:18:26.626Z,7.53
2019-05-06T23:20:55.099Z,7.84
2019-05-06T23:23:23.571Z,7.85
2019-05-06T23:26:10.047Z,7.84
2019-05-06T23:28:38.509Z,7.83
2019-05-06T23:31:06.992Z,7.70
2019-05-06T23:33:35.502Z,7.79
2019-05-06T23:36:04.123Z,7.77
2019-05-06T23:39:09.469Z,7.75
2019-05-06T23:42:14.428Z,7.73
2019-05-06T23:45:19.593Z,7.72
2019-05-06T23:48:24.588Z,7.71
2019-05-06T23:51:29.608Z,7.70
2019-05-06T23:54:34.318Z,7.66
2019-05-06T23:57:02.833Z,7.64
2019-05-06T23:59:32.213Z,7.61
